Time;durP1;ratioP1;P1;durP2;ratioP2;P2;SDS_P1;SDS_P2;PMS_P1;PMS_P2;Temp;Humidity;BMP_temperature;BMP_pressure;BME280_temperature;BME280_humidity;BME280_pressure;Samples;Min_cycle;Max_cycle;Signal;HPM_P1;HPM_P2
2021/12/19 00:00:42;;;;;;;18.07;8.37;;;;;;;2.24;73.98;100879.36;125267;1102;104315;-80
2021/12/19 00:03:32;;;;;;;20.67;8.80;;;;;;;2.21;73.93;100866.18;125679;1099;104212;-79
2021/12/19 00:08:50;;;;;;;20.00;9.50;;;;;;;2.21;73.81;100871.36;126330;1099;104211;-79
2021/12/19 00:11:21;;;;;;;22.27;9.37;;;;;;;2.20;73.70;100866.95;126165;1099;104161;-78
2021/12/19 00:13:50;;;;;;;21.70;10.20;;;;;;;2.20;73.95;100866.95;126030;1098;105296;-78
2021/12/19 00:16:19;;;;;;;22.53;9.10;;;;;;;2.21;74.01;100863.59;126131;1099;104217;-79
2021/12/19 00:18:48;;;;;;;22.87;9.70;;;;;;;2.20;74.39;100873.06;126052;1099;104208;-80
2021/12/19 00:21:18;;;;;;;20.83;9.90;;;;;;;2.21;74.89;100858.41;126130;1099;104271;-79
2021/12/19 00:23:52;;;;;;;20.20;9.27;;;;;;;2.21;74.16;100853.23;126056;1097;104166;-80
2021/12/19 00:26:20;;;;;;;;;;;;;;;2.22;74.30;100852.45;126192;1099;104146;-79
2021/12/19 00:28:50;;;;;;;20.73;9.13;;;;;;;2.22;74.11;100858.53;126264;1099;104179;-78
2021/12/19 00:31:19;;;;;;;22.90;8.90;;;;;;;2.21;74.34;100854.13;126321;1099;104201;-79
2021/12/19 00:33:47;;;;;;;22.90;9.45;;;;;;;2.21;74.32;100846.36;126292;1099;104211;-79
2021/12/19 00:36:17;;;;;;;21.93;9.80;;;;;;;2.22;74.28;100842.09;126346;1099;104287;-80
2021/12/19 00:38:47;;;;;;;21.43;9.33;;;;;;;2.23;74.59;100834.45;126194;1098;104277;-79
2021/12/19 00:41:16;;;;;;;21.30;10.10;;;;;;;2.24;74.06;100832.75;126351;1099;104169;-79
2021/12/19 00:43:53;;;;;;;25.43;10.13;;;;;;;2.24;74.36;100830.16;126252;1099;104178;-79
2021/12/19 00:46:25;;;;;;;22.95;9.85;;;;;;;2.24;73.74;100815.52;126340;1099;104165;-79
2021/12/19 00:48:55;;;;;;;23.43;10.70;;;;;;;2.24;74.06;100812.92;126293;1099;104160;-80
2021/12/19 00:51:26;;;;;;;24.47;10.60;;;;;;;2.25;74.21;100808.66;126320;1099;104240;-79
2021/12/19 00:53:55;;;;;;;22.97;10.43;;;;;;;2.26;74.52;100805.27;126236;1099;104176;-79
2021/12/19 00:56:25;;;;;;;21.50;10.10;;;;;;;2.28;74.75;100801.12;126314;1099;104143;-79
2021/12/19 00:58:58;;;;;;;23.03;9.93;;;;;;;2.28;74.80;100801.12;126322;1099;104144;-79
2021/12/19 01:01:27;;;;;;;23.33;10.20;;;;;;;2.29;74.07;100797.72;126341;1099;104226;-79
2021/12/19 01:03:55;;;;;;;26.30;10.80;;;;;;;2.31;74.60;100788.41;126221;1099;104654;-79
2021/12/19 01:06:24;;;;;;;24.80;10.50;;;;;;;2.29;74.46;100784.77;126319;1099;104146;-79
2021/12/19 01:08:54;;;;;;;24.47;10.47;;;;;;;2.27;74.41;100781.19;126305;1099;104348;-79
2021/12/19 01:11:27;;;;;;;23.90;11.03;;;;;;;2.27;74.67;100781.19;126303;1099;104152;-80
2021/12/19 01:13:56;;;;;;;22.10;10.25;;;;;;;2.28;74.29;100775.23;126307;1099;104290;-79
2021/12/19 01:16:25;;;;;;;24.23;10.27;;;;;;;2.29;74.30;100779.59;126286;1099;104169;-79
2021/12/19 01:18:56;;;;;;;25.57;10.80;;;;;;;2.32;74.51;100766.88;126381;1099;104160;-79
2021/12/19 01:21:27;;;;;;;23.85;10.95;;;;;;;2.33;74.29;100763.50;126310;1099;104300;-79
2021/12/19 01:23:55;;;;;;;24.60;10.23;;;;;;;2.33;74.69;100756.63;126278;1099;104280;-81
2021/12/19 01:26:24;;;;;;;24.93;11.43;;;;;;;2.33;74.13;100748.86;126310;1099;104140;-80
2021/12/19 01:28:52;;;;;;;23.03;10.43;;;;;;;2.33;74.94;100735.91;126317;1099;104143;-79
2021/12/19 01:31:21;;;;;;;26.43;11.57;;;;;;;2.35;74.60;100736.02;126346;1099;104156;-80
2021/12/19 01:33:51;;;;;;;26.40;11.43;;;;;;;2.35;74.99;100728.25;126276;1099;104570;-80
2021/12/19 01:36:20;;;;;;;22.23;11.03;;;;;;;2.37;74.86;100723.18;126324;1099;104194;-79
2021/12/19 01:38:49;;;;;;;22.00;10.37;;;;;;;2.36;74.85;100709.34;126267;1099;104331;-79
2021/12/19 01:41:18;;;;;;;24.23;10.30;;;;;;;2.34;74.38;100698.88;126311;1099;104240;-79
2021/12/19 01:43:47;;;;;;;24.97;11.00;;;;;;;2.36;74.66;100693.80;126266;1098;104204;-80
2021/12/19 01:46:19;;;;;;;24.97;10.63;;;;;;;2.35;75.15;100684.22;126350;1099;104280;-80
2021/12/19 01:48:49;;;;;;;23.10;10.20;;;;;;;2.33;75.07;100688.41;126353;1099;104153;-79
2021/12/19 01:51:18;;;;;;;24.23;11.00;;;;;;;2.28;74.60;100694.95;126343;1099;104204;-79
2021/12/19 01:53:47;;;;;;;24.43;11.47;;;;;;;2.23;74.62;100689.45;126239;1099;104207;-80
2021/12/19 01:56:15;;;;;;;23.70;10.63;;;;;;;2.20;74.71;100685.71;126300;1099;104994;-79
2021/12/19 01:58:46;;;;;;;25.10;11.13;;;;;;;2.18;75.31;100682.13;126246;1098;104143;-81
2021/12/19 02:01:15;;;;;;;24.13;11.10;;;;;;;2.13;75.16;100668.84;126339;1099;104144;-79
2021/12/19 02:03:44;;;;;;;24.33;11.93;;;;;;;2.09;74.84;100666.84;126307;1099;104287;-79
2021/12/19 02:06:15;;;;;;;25.37;11.50;;;;;;;2.04;74.82;100669.10;126299;1099;104146;-79
2021/12/19 02:08:44;;;;;;;23.97;10.37;;;;;;;2.00;74.52;100661.89;126315;1099;104146;-79
2021/12/19 02:11:14;;;;;;;25.60;11.30;;;;;;;1.97;74.98;100656.49;126341;1099;104152;-78
2021/12/19 02:13:43;;;;;;;26.50;10.63;;;;;;;1.93;75.17;100660.56;126324;1099;104226;-78
2021/12/19 02:16:13;;;;;;;25.37;11.30;;;;;;;1.91;75.73;100661.22;126273;1099;104287;-79
2021/12/19 02:18:41;;;;;;;22.80;10.97;;;;;;;1.88;74.57;100653.23;126295;1099;104153;-78
2021/12/19 02:21:10;;;;;;;23.90;10.77;;;;;;;1.86;74.75;100657.41;126342;1099;104205;-79
2021/12/19 02:23:38;;;;;;;25.47;12.03;;;;;;;1.84;74.90;100653.79;126330;1099;104163;-79
2021/12/19 02:26:07;;;;;;;26.03;10.83;;;;;;;1.83;75.09;100658.08;126298;1099;104222;-79
2021/12/19 02:28:37;;;;;;;24.20;11.20;;;;;;;1.81;75.15;100651.90;126309;1099;104201;-79
2021/12/19 02:31:06;;;;;;;28.97;11.43;;;;;;;1.84;74.82;100651.20;126283;1099;104290;-79
2021/12/19 02:33:40;;;;;;;22.77;10.33;;;;;;;1.84;75.05;100646.03;126326;1099;104207;-79
2021/12/19 02:36:25;;;;;;;29.53;12.23;;;;;;;1.86;75.41;100645.36;126223;1099;104152;-79
2021/12/19 02:50:19;;;;;;;23.87;11.07;;;;;;;1.94;75.30;100618.34;125909;1099;104621;-80
2021/12/19 02:52:48;;;;;;;24.07;11.93;;;;;;;1.95;75.33;100614.97;126308;1099;104160;-79
2021/12/19 02:55:18;;;;;;;23.47;10.20;;;;;;;1.96;74.79;100611.61;126279;1097;104556;-80
2021/12/19 02:57:49;;;;;;;22.50;10.70;;;;;;;1.95;75.23;100604.62;126270;1099;104140;-79
2021/12/19 03:00:21;;;;;;;22.43;10.27;;;;;;;1.96;75.62;100605.51;126360;1099;104185;-79
2021/12/19 03:02:50;;;;;;;25.23;11.83;;;;;;;1.97;75.37;100607.32;126314;1099;104162;-79
2021/12/19 03:05:19;;;;;;;23.63;10.37;;;;;;;1.96;75.75;100601.25;126326;1099;104152;-79
2021/12/19 03:07:50;;;;;;;28.05;10.90;;;;;;;1.98;75.40;100597.08;126271;1099;104245;-79
2021/12/19 03:11:00;;;;;;;24.40;10.50;;;;;;;2.00;75.36;100589.42;126298;1099;104163;-79
2021/12/19 03:13:37;;;;;;;23.90;10.33;;;;;;;2.00;75.74;100584.24;126335;1099;104162;-79
2021/12/19 03:18:53;;;;;;;23.30;10.60;;;;;;;2.00;75.38;100573.89;126378;1099;104159;-79
2021/12/19 03:21:24;;;;;;;25.60;11.03;;;;;;;2.01;75.72;100577.37;126343;1099;101985;-77
2021/12/19 03:23:53;;;;;;;24.97;10.80;;;;;;;2.01;75.48;100580.88;126269;1099;104332;-77
2021/12/19 03:26:23;;;;;;;24.10;10.90;;;;;;;2.02;75.52;100564.53;126234;1099;104287;-78
2021/12/19 03:28:52;;;;;;;22.53;10.17;;;;;;;2.04;74.92;100562.05;126292;1099;104197;-79
2021/12/19 03:31:22;;;;;;;30.23;12.73;;;;;;;2.04;75.55;100564.64;126318;1099;104201;-79
2021/12/19 03:33:51;;;;;;;24.43;10.67;;;;;;;2.03;75.80;100562.87;126328;1099;104281;-80
2021/12/19 03:36:20;;;;;;;25.67;10.80;;;;;;;2.03;75.23;100560.28;126254;1099;104156;-80
2021/12/19 03:38:52;;;;;;;22.93;10.17;;;;;;;2.03;75.13;100544.75;126335;1099;104147;-79
2021/12/19 03:41:23;;;;;;;23.77;10.27;;;;;;;2.03;75.57;100543.05;126296;1099;104156;-79
2021/12/19 03:43:51;;;;;;;22.70;9.87;;;;;;;2.04;75.38;100543.94;126346;1099;104576;-79
2021/12/19 03:46:21;;;;;;;21.97;10.33;;;;;;;2.03;74.77;100537.88;126315;1099;104280;-80
2021/12/19 03:48:53;;;;;;;23.03;9.83;;;;;;;2.03;75.36;100537.88;126259;1099;104241;-79
2021/12/19 03:51:23;;;;;;;21.30;9.80;;;;;;;2.02;74.85;100528.30;126353;1099;104223;-80
2021/12/19 03:53:52;;;;;;;21.37;9.50;;;;;;;2.03;75.32;100521.45;126319;1099;104150;-80
2021/12/19 03:56:21;;;;;;;22.57;10.03;;;;;;;2.06;75.54;100511.31;126237;1099;104152;-80
2021/12/19 03:58:53;;;;;;;20.90;9.57;;;;;;;2.06;75.78;100508.73;126325;1098;117795;-79
2021/12/19 04:01:25;;;;;;;23.43;10.33;;;;;;;2.06;75.54;100498.37;126279;1099;104657;-79
2021/12/19 04:03:54;;;;;;;23.50;10.73;;;;;;;2.07;74.88;100492.38;126293;1099;104149;-79
2021/12/19 04:06:23;;;;;;;20.63;8.40;;;;;;;2.07;75.28;100492.38;126233;1099;104306;-79
2021/12/19 04:08:52;;;;;;;21.30;9.17;;;;;;;2.07;75.74;100502.73;126314;1099;104153;-79
2021/12/19 04:11:25;;;;;;;24.23;9.20;;;;;;;2.09;75.66;100514.12;126324;1099;104320;-79
2021/12/19 04:13:53;;;;;;;19.97;9.17;;;;;;;2.10;76.14;100497.77;126328;1099;104165;-79
2021/12/19 04:16:22;;;;;;;23.20;9.70;;;;;;;2.10;75.63;100498.69;126345;1099;104195;-79
2021/12/19 04:18:51;;;;;;;22.03;9.40;;;;;;;2.11;75.77;100503.05;125264;1099;105675;-79
2021/12/19 04:21:20;;;;;;;20.93;8.53;;;;;;;2.12;75.92;100494.51;125337;1099;104220;-80
2021/12/19 04:23:49;;;;;;;19.27;8.63;;;;;;;2.15;75.67;100491.21;125287;1099;104290;-79
2021/12/19 04:26:18;;;;;;;19.93;8.00;;;;;;;2.16;75.49;100488.73;125302;1099;104236;-79
2021/12/19 04:28:48;;;;;;;20.60;9.03;;;;;;;2.17;75.91;100489.66;125268;1099;106132;-79
2021/12/19 04:31:18;;;;;;;20.67;8.53;;;;;;;2.18;75.30;100483.66;125318;1099;104332;-79
2021/12/19 04:33:47;;;;;;;21.70;9.20;;;;;;;2.20;76.04;100476.00;125284;1098;104383;-79
2021/12/19 04:36:23;;;;;;;20.70;8.87;;;;;;;2.21;75.95;100470.92;125266;1099;104325;-79
2021/12/19 04:42:06;;;;;;;23.60;10.23;;;;;;;2.24;75.52;100465.07;125277;1099;104159;-79
2021/12/19 04:53:23;;;;;;;22.17;8.80;;;;;;;2.27;75.16;100436.80;126158;1099;104278;-79
2021/12/19 05:02:06;;;;;;;20.07;8.40;;;;;;;2.25;75.27;100420.27;126189;1099;104140;-79
2021/12/19 05:05:03;;;;;;;14.20;6.93;;;;;;;2.24;74.98;100418.47;126343;1099;104146;-79
2021/12/19 05:15:53;;;;;;;16.93;7.00;;;;;;;2.25;75.05;100405.63;126136;1099;104169;-78
2021/12/19 05:18:26;;;;;;;16.73;6.93;;;;;;;2.26;75.54;100403.92;126053;1099;104301;-77
2021/12/19 05:20:58;;;;;;;18.07;7.30;;;;;;;2.26;75.38;100406.51;126064;1099;104190;-77
2021/12/19 05:23:37;;;;;;;18.37;7.37;;;;;;;2.26;75.33;100401.33;126306;1099;104194;-79
2021/12/19 05:26:06;;;;;;;15.77;6.37;;;;;;;2.27;75.31;100403.14;126163;1099;104156;-78
2021/12/19 05:28:35;;;;;;;15.43;6.33;;;;;;;2.26;75.41;100390.97;126067;1099;104253;-78
2021/12/19 05:31:04;;;;;;;14.90;6.60;;;;;;;2.28;75.64;100392.00;126095;1099;104810;-77
2021/12/19 05:33:32;;;;;;;15.73;6.57;;;;;;;2.29;75.22;100391.18;126144;1099;104156;-78
2021/12/19 05:44:08;;;;;;;16.73;6.70;;;;;;;2.27;75.44;100377.24;126139;1099;104227;-77
2021/12/19 05:47:21;;;;;;;14.63;6.43;;;;;;;2.27;75.08;100361.71;126279;1099;104280;-78
2021/12/19 05:49:50;;;;;;;16.80;6.87;;;;;;;2.27;75.02;100361.71;126141;1099;104338;-78
2021/12/19 05:52:18;;;;;;;14.43;6.33;;;;;;;2.27;75.21;100356.53;126164;1099;104258;-77
2021/12/19 05:54:47;;;;;;;14.00;5.93;;;;;;;2.27;74.44;100357.41;126230;1099;104173;-78
2021/12/19 05:57:15;;;;;;;19.83;6.57;;;;;;;2.27;74.67;100348.77;126165;1098;104175;-78
2021/12/19 05:59:44;;;;;;;13.73;5.80;;;;;;;2.28;75.25;100343.69;126141;1099;104159;-77
2021/12/19 06:02:12;;;;;;;12.57;5.63;;;;;;;2.27;74.64;100346.17;126193;1098;104354;-78
2021/12/19 06:04:41;;;;;;;13.97;5.97;;;;;;;2.26;74.31;100340.11;126323;1099;104181;-79
2021/12/19 06:07:10;;;;;;;17.37;6.37;;;;;;;2.28;74.73;100332.45;126350;1098;104235;-78
2021/12/19 06:09:41;;;;;;;15.90;6.13;;;;;;;2.27;74.89;100323.76;126280;1099;104150;-78
2021/12/19 06:12:10;;;;;;;13.93;5.60;;;;;;;2.31;74.69;100324.87;126292;1098;104146;-79
2021/12/19 06:14:38;;;;;;;12.33;5.87;;;;;;;2.31;74.72;100318.00;126310;1097;104146;-80
2021/12/19 06:17:07;;;;;;;18.70;6.97;;;;;;;2.32;75.16;100316.29;126306;1099;104174;-79
2021/12/19 06:19:39;;;;;;;16.53;6.03;;;;;;;2.33;74.59;100320.69;126301;1099;104627;-79
2021/12/19 06:22:09;;;;;;;16.27;6.40;;;;;;;2.32;75.04;100319.80;126321;1099;104357;-79
2021/12/19 06:24:38;;;;;;;14.63;6.23;;;;;;;2.34;74.67;100322.49;126239;1099;104143;-79
2021/12/19 06:27:07;;;;;;;14.43;6.07;;;;;;;2.34;74.72;100317.31;126333;1099;104255;-79
2021/12/19 06:29:36;;;;;;;12.27;5.70;;;;;;;2.36;74.91;100317.41;126297;1099;105723;-80
2021/12/19 06:32:11;;;;;;;14.07;5.90;;;;;;;2.37;74.80;100316.59;126328;1099;104147;-79
2021/12/19 06:34:41;;;;;;;17.13;6.10;;;;;;;2.38;74.14;100316.69;126198;1099;104143;-79
2021/12/19 06:37:10;;;;;;;11.87;4.90;;;;;;;2.39;75.23;100321.09;126162;1099;104149;-79
2021/12/19 06:39:40;;;;;;;13.60;5.33;;;;;;;2.41;75.09;100318.60;126219;1099;104181;-79
2021/12/19 06:42:10;;;;;;;12.43;5.80;;;;;;;2.43;75.09;100315.33;126173;1099;112051;-79
2021/12/19 06:44:39;;;;;;;13.37;5.50;;;;;;;2.47;74.67;100312.11;126153;1099;104738;-80
2021/12/19 06:47:11;;;;;;;14.50;5.60;;;;;;;2.51;74.97;100315.83;126160;1098;104140;-79
2021/12/19 06:49:39;;;;;;;10.67;5.37;;;;;;;2.56;74.47;100308.35;126295;1099;104905;-79
2021/12/19 06:52:08;;;;;;;14.43;6.23;;;;;;;2.59;74.89;100293.89;126284;1099;104171;-79
2021/12/19 06:54:37;;;;;;;12.03;6.00;;;;;;;2.63;74.89;100288.13;126318;1099;104178;-78
2021/12/19 06:57:06;;;;;;;12.63;5.30;;;;;;;2.67;74.65;100276.25;126323;1099;104149;-78
2021/12/19 06:59:34;;;;;;;16.50;5.97;;;;;;;2.70;74.88;100277.33;126325;1097;104159;-79
2021/12/19 07:02:03;;;;;;;13.40;6.27;;;;;;;2.74;75.13;100268.04;126229;1099;104150;-79
2021/12/19 07:04:32;;;;;;;12.17;5.53;;;;;;;2.75;74.59;100267.25;126394;1099;104203;-79
2021/12/19 07:07:00;;;;;;;14.57;5.80;;;;;;;2.76;74.58;100261.28;126262;1099;104232;-79
2021/12/19 07:09:29;;;;;;;13.23;5.70;;;;;;;2.77;75.06;100259.58;126354;1099;104229;-79
2021/12/19 07:11:57;;;;;;;15.37;6.03;;;;;;;2.75;74.76;100258.59;126283;1099;104274;-79
2021/12/19 07:14:27;;;;;;;13.80;6.40;;;;;;;2.72;75.00;100248.92;126300;1099;104335;-79
2021/12/19 07:16:56;;;;;;;14.73;6.50;;;;;;;2.72;75.06;100258.41;126352;1099;104149;-78
2021/12/19 07:19:25;;;;;;;14.67;6.50;;;;;;;2.70;74.56;100250.53;126296;1099;104922;-78
2021/12/19 07:21:55;;;;;;;19.60;7.10;;;;;;;2.70;74.37;100254.01;126290;1099;104214;-79
2021/12/19 07:24:25;;;;;;;16.10;6.47;;;;;;;2.71;74.90;100252.30;126355;1099;104300;-79
2021/12/19 07:26:54;;;;;;;16.97;7.20;;;;;;;2.73;74.79;100245.55;126346;1098;104274;-78
2021/12/19 07:29:24;;;;;;;14.50;6.40;;;;;;;2.76;74.81;100247.41;126283;1099;104182;-79
2021/12/19 07:31:53;;;;;;;14.97;6.30;;;;;;;2.79;75.03;100237.23;126303;1099;104149;-79
2021/12/19 07:34:29;;;;;;;14.37;6.40;;;;;;;2.87;74.47;100234.34;126330;1099;104208;-79
2021/12/19 07:36:59;;;;;;;14.23;6.37;;;;;;;2.97;75.26;100229.72;126340;1099;104268;-79
2021/12/19 07:39:41;;;;;;;18.63;7.20;;;;;;;3.09;75.36;100221.81;126308;1099;104155;-79
2021/12/19 07:42:12;;;;;;;15.80;6.50;;;;;;;3.18;74.55;100223.27;126268;1099;104195;-80
2021/12/19 07:44:43;;;;;;;14.53;6.47;;;;;;;3.28;74.41;100222.11;126015;1099;102150;-79
2021/12/19 07:47:12;;;;;;;15.23;6.77;;;;;;;3.37;74.78;100214.88;126368;1099;104156;-79
2021/12/19 07:49:41;;;;;;;14.97;6.53;;;;;;;3.44;74.10;100205.76;126267;1098;104241;-79
2021/12/19 07:52:10;;;;;;;17.70;6.77;;;;;;;3.46;74.31;100211.95;126265;1099;104146;-79
2021/12/19 07:54:38;;;;;;;15.97;6.93;;;;;;;3.48;74.37;100202.55;126292;1098;104158;-79
2021/12/19 07:57:07;;;;;;;15.20;6.37;;;;;;;3.46;74.78;100211.95;126155;1099;104146;-78
2021/12/19 07:59:35;;;;;;;15.30;6.67;;;;;;;3.46;74.67;100204.17;126232;1099;101892;-78
2021/12/19 08:02:05;;;;;;;15.97;6.50;;;;;;;3.45;74.90;100194.59;126235;1099;104290;-79
2021/12/19 08:04:34;;;;;;;15.90;6.60;;;;;;;3.48;74.89;100194.77;126319;1099;104265;-80
2021/12/19 08:07:08;;;;;;;14.93;5.97;;;;;;;3.46;74.75;100186.02;126326;1099;104153;-79
2021/12/19 08:09:39;;;;;;;14.40;6.20;;;;;;;3.46;74.67;100187.69;126381;1099;104149;-79
2021/12/19 08:12:12;;;;;;;16.27;6.50;;;;;;;3.47;75.22;100182.59;126275;1099;104706;-79
2021/12/19 08:14:43;;;;;;;17.23;6.80;;;;;;;3.48;74.46;100178.33;126310;1099;104576;-79
2021/12/19 08:17:15;;;;;;;15.43;6.60;;;;;;;3.51;75.12;100166.42;126319;1099;104246;-79
2021/12/19 08:19:43;;;;;;;13.27;5.43;;;;;;;3.56;75.20;100159.78;126309;1099;104153;-79
2021/12/19 08:22:14;;;;;;;15.47;6.03;;;;;;;3.64;74.33;100155.04;126287;1099;104147;-79
2021/12/19 08:24:43;;;;;;;16.37;5.90;;;;;;;3.70;74.79;100144.13;126338;1099;104325;-79
2021/12/19 08:27:12;;;;;;;13.43;6.10;;;;;;;3.72;74.76;100129.53;126316;1099;104162;-79
2021/12/19 08:29:41;;;;;;;12.87;5.83;;;;;;;3.71;75.19;100126.05;126310;1099;104149;-79
2021/12/19 08:32:10;;;;;;;15.63;5.90;;;;;;;3.70;74.92;100121.66;126297;1099;104149;-79
2021/12/19 08:34:40;;;;;;;13.53;5.90;;;;;;;3.70;74.77;100115.59;126349;1098;104242;-79
2021/12/19 08:37:09;;;;;;;11.03;5.40;;;;;;;3.72;74.77;100113.97;126293;1099;104149;-79
2021/12/19 08:39:38;;;;;;;20.47;6.33;;;;;;;3.72;75.15;100117.44;126206;1099;104149;-79
2021/12/19 08:42:09;;;;;;;13.30;5.90;;;;;;;3.81;74.70;100111.01;126216;1099;104284;-78
2021/12/19 08:44:42;;;;;;;14.70;5.65;;;;;;;3.86;75.19;100100.05;126248;1099;104280;-79
2021/12/19 08:47:13;;;;;;;17.27;5.70;;;;;;;3.91;75.09;100090.84;126323;1099;104287;-79
2021/12/19 08:49:41;;;;;;;12.97;5.60;;;;;;;3.97;75.17;100085.08;126329;1099;104169;-79
2021/12/19 08:52:11;;;;;;;13.70;5.33;;;;;;;4.08;75.52;100088.27;126338;1099;104303;-80
2021/12/19 08:54:40;;;;;;;15.73;6.33;;;;;;;4.24;74.96;100087.39;126237;1099;104285;-80
2021/12/19 08:57:09;;;;;;;16.13;6.17;;;;;;;4.36;75.27;100076.78;126323;1099;104284;-77
2021/12/19 08:59:43;;;;;;;12.10;5.53;;;;;;;4.50;74.76;100073.21;126292;1099;104334;-79
2021/12/19 09:02:11;;;;;;;;;;;;;;;4.67;74.58;100064.63;126355;1099;104274;-79
2021/12/19 09:04:43;;;;;;;11.50;5.80;;;;;;;4.83;74.73;100065.39;126271;1099;105601;-80
2021/12/19 09:07:13;;;;;;;15.17;6.27;;;;;;;4.96;74.83;100054.81;126316;1099;104188;-79
2021/12/19 09:09:41;;;;;;;11.45;5.35;;;;;;;5.10;74.92;100041.63;126306;1099;104153;-79
2021/12/19 09:12:11;;;;;;;10.03;4.87;;;;;;;5.19;74.92;100037.77;125237;1099;104280;-79
2021/12/19 09:14:40;;;;;;;12.00;5.10;;;;;;;5.26;75.06;100028.55;125251;1102;104264;-79
2021/12/19 09:17:08;;;;;;;13.07;5.57;;;;;;;5.30;74.63;100009.69;125335;1102;104300;-79
2021/12/19 09:19:37;;;;;;;11.37;5.80;;;;;;;5.39;74.85;99997.12;125264;1101;104287;-79
2021/12/19 09:22:06;;;;;;;11.90;5.13;;;;;;;5.53;74.81;99995.19;125305;1102;104174;-79
2021/12/19 09:24:35;;;;;;;15.37;5.90;;;;;;;5.67;74.78;99987.13;125239;1099;104220;-78
2021/12/19 09:27:09;;;;;;;11.83;5.47;;;;;;;5.67;74.46;99980.23;125351;1099;104194;-79
2021/12/19 09:29:37;;;;;;;14.33;6.05;;;;;;;5.68;74.27;99978.51;125335;1099;104210;-78
2021/12/19 09:32:10;;;;;;;12.07;5.43;;;;;;;5.65;74.25;99983.56;125249;1099;104280;-80
2021/12/19 09:34:39;;;;;;;16.27;5.80;;;;;;;5.59;74.48;99986.76;125226;1099;104236;-79
2021/12/19 09:37:07;;;;;;;12.43;5.50;;;;;;;5.54;74.20;99976.13;125276;1102;104328;-79
2021/12/19 09:39:37;;;;;;;18.87;5.83;;;;;;;5.53;74.33;99968.25;125328;1102;104526;-79
2021/12/19 09:42:10;;;;;;;12.87;5.70;;;;;;;5.55;73.94;99961.43;125274;1102;104302;-79
2021/12/19 09:44:40;;;;;;;12.50;5.70;;;;;;;5.54;74.00;99957.03;126150;1098;104236;-79
2021/12/19 09:47:10;;;;;;;14.13;5.43;;;;;;;5.49;74.43;99955.94;126313;1099;104162;-79
2021/12/19 09:49:39;;;;;;;11.53;5.40;;;;;;;5.37;74.20;99957.11;126224;1099;104249;-79
2021/12/19 09:52:09;;;;;;;11.97;5.17;;;;;;;5.25;74.11;99950.44;126281;1099;104283;-80
2021/12/19 09:54:39;;;;;;;10.30;5.33;;;;;;;5.10;74.14;99955.81;126268;1099;104302;-79
2021/12/19 09:57:18;;;;;;;11.57;5.43;;;;;;;4.98;74.07;99940.48;126273;1098;104296;-79
2021/12/19 09:59:53;;;;;;;13.03;5.90;;;;;;;4.91;74.26;99938.39;126334;1099;104608;-79
2021/12/19 10:02:22;;;;;;;13.33;5.90;;;;;;;4.83;73.79;99940.61;126284;1099;104281;-78
2021/12/19 10:04:51;;;;;;;11.23;5.50;;;;;;;4.80;74.53;99928.38;126256;1099;104178;-79
2021/12/19 10:07:23;;;;;;;14.47;5.90;;;;;;;4.83;74.83;99919.81;126267;1099;104295;-79
2021/12/19 10:09:59;;;;;;;13.80;5.97;;;;;;;4.87;74.27;99916.55;125253;1099;104306;-79
2021/12/19 10:12:48;;;;;;;12.70;5.60;;;;;;;4.96;74.73;99906.61;125334;1099;104236;-79
2021/12/19 10:15:19;;;;;;;11.70;5.53;;;;;;;5.08;74.50;99906.32;125284;1099;104220;-80
2021/12/19 10:17:58;;;;;;;12.90;6.20;;;;;;;5.17;74.48;99901.56;125314;1099;104153;-80
2021/12/19 10:20:27;;;;;;;12.55;6.00;;;;;;;5.29;74.84;99895.14;125247;1099;104479;-80
2021/12/19 10:22:56;;;;;;;16.07;5.90;;;;;;;5.32;74.78;99890.97;125278;1099;104448;-79
2021/12/19 10:25:27;;;;;;;13.63;5.87;;;;;;;5.33;74.94;99874.55;125176;1102;104161;-78
2021/12/19 10:27:58;;;;;;;12.90;5.50;;;;;;;5.32;74.61;99869.28;125174;1099;104166;-78
2021/12/19 10:30:31;;;;;;;12.60;5.67;;;;;;;5.30;74.48;99864.00;125240;1099;104230;-78
2021/12/19 10:33:02;;;;;;;13.13;5.75;;;;;;;5.28;74.65;99855.22;125185;1099;104165;-77
2021/12/19 10:35:33;;;;;;;13.03;5.80;;;;;;;5.28;74.75;99849.13;125109;1099;104578;-78
2021/12/19 10:38:04;;;;;;;12.33;5.53;;;;;;;5.26;74.62;99833.45;125246;1099;104229;-78
2021/12/19 10:40:33;;;;;;;12.13;5.60;;;;;;;5.25;74.89;99836.89;125370;1102;104309;-78
2021/12/19 10:43:04;;;;;;;13.73;6.37;;;;;;;5.24;74.51;99829.90;126309;1099;104156;-79
2021/12/19 10:45:45;;;;;;;15.07;5.63;;;;;;;5.24;74.62;99823.81;126210;1099;104262;-80
2021/12/19 10:48:24;;;;;;;12.03;5.23;;;;;;;5.20;74.83;99817.56;126306;1099;104153;-78
2021/12/19 10:50:56;;;;;;;16.10;6.20;;;;;;;5.18;74.87;99817.48;126303;1099;104408;-79
2021/12/19 10:53:30;;;;;;;13.10;5.70;;;;;;;5.15;74.92;99808.66;126154;1099;104169;-79
2021/12/19 10:56:00;;;;;;;12.47;5.50;;;;;;;5.12;74.56;99808.52;126300;1099;104137;-79
2021/12/19 10:58:35;;;;;;;13.90;5.80;;;;;;;5.08;74.75;99822.19;126360;1099;104150;-79
2021/12/19 11:01:10;;;;;;;14.33;6.40;;;;;;;5.03;74.24;99815.08;126304;1099;104153;-79
2021/12/19 11:03:46;;;;;;;13.53;5.77;;;;;;;5.02;74.50;99807.21;126338;1099;104159;-79
2021/12/19 11:06:20;;;;;;;14.53;6.17;;;;;;;4.98;74.75;99816.55;126260;1098;104341;-79
2021/12/19 11:08:50;;;;;;;12.57;6.27;;;;;;;4.98;74.61;99816.55;126329;1099;104200;-80
2021/12/19 11:11:43;;;;;;;14.67;5.73;;;;;;;5.00;75.02;99808.83;126326;1099;104153;-79
2021/12/19 11:14:14;;;;;;;17.77;6.83;;;;;;;5.02;75.08;99810.69;126311;1099;104287;-79
2021/12/19 11:16:46;;;;;;;13.00;5.97;;;;;;;5.03;74.92;99820.28;126287;1099;105409;-79
2021/12/19 11:19:16;;;;;;;14.67;6.40;;;;;;;5.03;74.59;99812.48;126205;1099;104229;-79
2021/12/19 11:21:46;;;;;;;14.87;6.70;;;;;;;5.06;74.47;99808.23;126301;1098;104210;-79
2021/12/19 11:24:17;;;;;;;17.63;7.07;;;;;;;5.06;74.88;99803.91;126337;1099;104144;-80
2021/12/19 11:26:49;;;;;;;15.13;6.57;;;;;;;5.06;75.40;99809.11;126267;1099;104229;-79
2021/12/19 11:29:19;;;;;;;15.47;6.70;;;;;;;5.02;74.81;99802.89;126352;1099;104204;-78
2021/12/19 11:31:52;;;;;;;15.70;6.73;;;;;;;5.00;74.87;99801.94;126366;1099;104255;-79
2021/12/19 11:34:26;;;;;;;15.83;6.70;;;;;;;4.98;74.68;99798.35;126270;1099;104277;-79
2021/12/19 11:37:02;;;;;;;15.80;6.37;;;;;;;4.96;75.39;99818.20;126295;1099;105598;-79
2021/12/19 11:39:33;;;;;;;14.90;6.80;;;;;;;4.97;75.40;99806.08;126253;1099;104380;-80
2021/12/19 11:42:11;;;;;;;17.80;7.57;;;;;;;4.97;75.13;99807.00;126333;1099;104315;-79
2021/12/19 11:44:48;;;;;;;16.55;7.00;;;;;;;4.97;74.94;99806.08;126354;1099;105199;-80
2021/12/19 11:47:43;;;;;;;19.47;6.63;;;;;;;4.96;75.56;99801.72;126295;1099;104156;-78
2021/12/19 11:50:18;;;;;;;17.32;6.83;;;;;;;4.95;75.05;99795.61;126314;1099;104214;-78
2021/12/19 11:52:47;;;;;;;16.33;6.63;;;;;;;4.93;75.27;99794.66;126280;1099;104165;-80
2021/12/19 11:55:37;;;;;;;15.80;6.80;;;;;;;4.94;74.93;99790.34;126333;1099;104152;-79
2021/12/19 11:58:23;;;;;;;16.20;6.83;;;;;;;4.93;75.26;99776.46;126277;1099;104146;-80
2021/12/19 12:01:09;;;;;;;22.60;9.03;;;;;;;4.95;75.36;99779.13;126247;1099;104204;-79
2021/12/19 12:03:51;;;;;;;23.83;10.37;;;;;;;4.96;75.20;99776.60;126138;1099;105126;-78
2021/12/19 12:06:31;;;;;;;22.50;10.17;;;;;;;4.96;75.02;99768.80;126242;1098;104142;-78
2021/12/19 12:09:13;;;;;;;20.80;8.70;;;;;;;4.98;75.68;99768.88;126273;1099;104159;-79
2021/12/19 12:12:20;;;;;;;19.57;8.97;;;;;;;4.96;75.37;99762.72;126333;1099;104172;-79
2021/12/19 12:15:03;;;;;;;18.07;7.53;;;;;;;4.97;75.21;99765.39;126338;1099;104344;-79
2021/12/19 12:17:37;;;;;;;18.87;7.93;;;;;;;4.99;75.58;99761.14;126276;1099;104168;-80
2021/12/19 12:20:17;;;;;;;19.70;8.03;;;;;;;5.01;75.08;99762.09;126252;1099;104185;-80